Terminal Aerodrome Forecast
Issued by NWS

Current Version | Previous Version | Graphics & Text | Print | Product List | Glossary On
Versions: 1 2 3 4 5 6 7 8 9 10 11 12 13 14 15 16 17 18 19 20 21
828
FTUS41 KRLX 100304 AAA
TAFCKB
TAF AMD
KCKB 100304Z 1003/1024 24009G17KT 2SM -SHSN OVC015
     FM101700 25012G18KT 6SM -SHSN BKN020=

USA.gov is the U.S. government's official web portal to all federal, state and local government web resources and services.